KMUO/MUO METAR and TAF weather

Enter ICAO airport designator
Station Type Date Time Source
KMUO METAR 2019/08/20 08:58 UTC NOAA

KMUO 200858Z AUTO 34010KT 10SM BKN150 23/02 A2991 RMK AO2 SLP097 T02280017 51004 $


Station Type Date Time Source
KMUO Decoded METAR 2019/08/20 08:58 UTC NOAA

Mountain Home Air Force Base, ID, United States (KMUO) 43-03N 115-52W
Aug 20, 2019 - 04:58 AM EDT / 2019.08.20 0858 UTC
Wind: from the NNW (340 degrees) at 12 MPH (10 KT):0
Visibility: 10 mile(s):0
Sky conditions: mostly cloudy
Temperature: 73.0 F (22.8 C)
Dew Point: 35.1 F (1.7 C)
Relative Humidity: 24%
Pressure (altimeter): 29.91 in. Hg (1012 hPa)
Pressure tendency: 0.01 inches (0.4 hPa) higher than three hours ago
ob: KMUO 200858Z AUTO 34010KT 10SM BKN150 23/02 A2991 RMK AO2 SLP097 T02280017 51004
cycle: 9

Station Type Date Time Source
KMUO TAF 2019/08/20 02:30 UTC NOAA

TAF KMUO 200210Z 2002/2108 33012KT 9999 FEW100 BKN250 QNH2984INS
BECMG 2003/2004 VRB06KT 9999 FEW100 BKN250 QNH2986INS
BECMG 2015/2016 08006KT 9999 FEW250 QNH2990INS
BECMG 2021/2022 33012KT 9999 FEW100 FEW250 QNH2985INS
BECMG 2102/2103 VRB06KT 9999 FEW100 SCT250 QNH2985INS TX37/2023Z TN15/2012Z

Example: see airport list